Time;durP1;ratioP1;P1;durP2;ratioP2;P2;SDS_P1;SDS_P2;PMS_P1;PMS_P2;Temp;Humidity;BMP_temperature;BMP_pressure;BME280_temperature;BME280_humidity;BME280_pressure;Samples;Min_cycle;Max_cycle;Signal;HPM_P1;HPM_P2
2023/03/10 00:01:22;;;;;;;2.70;1.33;;;;;;;;;;5102625;28;20204;-69
2023/03/10 00:03:49;;;;;;;1.58;1.13;;;;;;;;;;5102564;28;20241;-69
2023/03/10 00:06:18;;;;;;;4.68;1.02;;;;;;;;;;5102731;28;20222;-69
2023/03/10 00:08:45;;;;;;;2.42;1.20;;;;;;;;;;5102479;28;20525;-69
2023/03/10 00:11:12;;;;;;;2.05;1.15;;;;;;;;;;5102757;28;20202;-69
2023/03/10 00:13:38;;;;;;;2.30;1.27;;;;;;;;;;5102576;28;20257;-69
2023/03/10 00:16:04;;;;;;;2.00;1.20;;;;;;;;;;5102532;28;20192;-69
2023/03/10 00:18:31;;;;;;;2.15;0.98;;;;;;;;;;5102372;28;20195;-69
2023/03/10 00:20:57;;;;;;;2.83;1.10;;;;;;;;;;5102523;28;20196;-69
2023/03/10 00:23:25;;;;;;;1.60;1.05;;;;;;;;;;5102613;28;20195;-69
2023/03/10 00:25:55;;;;;;;2.42;1.13;;;;;;;;;;5102421;28;20534;-69
2023/03/10 00:28:21;;;;;;;2.08;1.30;;;;;;;;;;5102096;28;20223;-69
2023/03/10 00:30:56;;;;;;;3.25;1.38;;;;;;;;;;5102338;28;20203;-69
2023/03/10 00:33:22;;;;;;;4.65;1.00;;;;;;;;;;5102548;28;20187;-69
2023/03/10 00:35:49;;;;;;;2.80;1.00;;;;;;;;;;5102220;28;20382;-69
2023/03/10 00:38:15;;;;;;;2.38;1.23;;;;;;;;;;5102169;28;20429;-69
2023/03/10 00:40:42;;;;;;;2.80;1.25;;;;;;;;;;5102462;28;20230;-69
2023/03/10 00:43:09;;;;;;;3.97;1.08;;;;;;;;;;5105499;28;20203;-69
2023/03/10 00:45:35;;;;;;;1.08;0.82;;;;;;;;;;5105942;28;20195;-68
2023/03/10 00:48:01;;;;;;;4.78;1.10;;;;;;;;;;5105784;28;20199;-68
2023/03/10 00:50:28;;;;;;;1.65;1.00;;;;;;;;;;5105921;28;20199;-68
2023/03/10 00:52:54;;;;;;;2.67;1.10;;;;;;;;;;5105921;28;20196;-69
2023/03/10 00:55:20;;;;;;;1.60;0.93;;;;;;;;;;5105929;28;20195;-69
2023/03/10 00:57:48;;;;;;;2.55;1.08;;;;;;;;;;5105983;28;20394;-69
2023/03/10 01:00:16;;;;;;;4.60;1.20;;;;;;;;;;5105730;28;20274;-69
2023/03/10 01:02:43;;;;;;;3.70;1.15;;;;;;;;;;5106045;28;20206;-69
2023/03/10 01:05:09;;;;;;;1.77;0.93;;;;;;;;;;5105726;28;20218;-69
2023/03/10 01:07:35;;;;;;;2.17;1.05;;;;;;;;;;5105510;28;20222;-69
2023/03/10 01:10:01;;;;;;;3.40;0.95;;;;;;;;;;5105153;28;20208;-68
2023/03/10 01:12:28;;;;;;;1.00;0.80;;;;;;;;;;5105468;28;20196;-69
2023/03/10 01:14:55;;;;;;;2.17;1.00;;;;;;;;;;5105300;28;20428;-69
2023/03/10 01:17:21;;;;;;;1.48;1.02;;;;;;;;;;5105571;28;20196;-69
2023/03/10 01:19:48;;;;;;;2.00;0.80;;;;;;;;;;5105409;28;20395;-69
2023/03/10 01:22:14;;;;;;;2.40;0.80;;;;;;;;;;5105320;28;20413;-69
2023/03/10 01:24:40;;;;;;;3.20;1.38;;;;;;;;;;5105465;28;20429;-69
2023/03/10 01:27:06;;;;;;;1.15;0.90;;;;;;;;;;5105568;28;20223;-69
2023/03/10 01:29:33;;;;;;;1.65;0.82;;;;;;;;;;5105317;28;20200;-69
2023/03/10 01:32:00;;;;;;;2.67;1.00;;;;;;;;;;5105293;28;20278;-68
2023/03/10 01:34:27;;;;;;;1.13;1.02;;;;;;;;;;5105259;28;20199;-69
2023/03/10 01:36:53;;;;;;;1.08;0.90;;;;;;;;;;5105120;28;20237;-69
2023/03/10 01:39:19;;;;;;;3.13;1.33;;;;;;;;;;5104826;28;20195;-69
2023/03/10 01:41:46;;;;;;;1.17;0.93;;;;;;;;;;5104859;28;20241;-68
2023/03/10 01:44:13;;;;;;;2.30;0.98;;;;;;;;;;5104736;28;20200;-68
2023/03/10 01:46:44;;;;;;;3.30;1.27;;;;;;;;;;5104923;28;20220;-68
2023/03/10 01:49:15;;;;;;;1.85;1.10;;;;;;;;;;5104569;28;20196;-69
2023/03/10 01:51:43;;;;;;;2.30;1.00;;;;;;;;;;5104848;28;20203;-69
2023/03/10 01:54:13;;;;;;;2.65;1.42;;;;;;;;;;5104710;28;20211;-68
2023/03/10 01:56:40;;;;;;;2.33;0.90;;;;;;;;;;5104860;28;20196;-69
2023/03/10 01:59:06;;;;;;;3.60;1.10;;;;;;;;;;5104354;28;20499;-68
2023/03/10 02:01:33;;;;;;;1.80;1.05;;;;;;;;;;5104837;28;20192;-69
2023/03/10 02:04:01;;;;;;;3.42;1.20;;;;;;;;;;5104583;28;20202;-69
2023/03/10 02:06:29;;;;;;;1.33;0.90;;;;;;;;;;5104585;28;20238;-68
2023/03/10 02:08:57;;;;;;;1.52;1.00;;;;;;;;;;5104014;28;20245;-68
2023/03/10 02:11:23;;;;;;;3.53;1.58;;;;;;;;;;5104708;28;20196;-69
2023/03/10 02:13:50;;;;;;;2.50;1.27;;;;;;;;;;5104474;28;20202;-68
2023/03/10 02:16:17;;;;;;;3.65;1.33;;;;;;;;;;5104551;28;20192;-68
2023/03/10 02:18:45;;;;;;;1.75;1.30;;;;;;;;;;5104151;28;20206;-68
2023/03/10 02:21:14;;;;;;;2.63;1.27;;;;;;;;;;5103994;28;20196;-68
2023/03/10 02:23:46;;;;;;;3.05;1.15;;;;;;;;;;5104547;28;20241;-68
2023/03/10 02:26:16;;;;;;;1.00;0.80;;;;;;;;;;5104184;28;20527;-68
2023/03/10 02:28:44;;;;;;;2.53;1.00;;;;;;;;;;5103676;28;20279;-68
2023/03/10 02:31:11;;;;;;;2.83;1.20;;;;;;;;;;5104152;28;20508;-68
2023/03/10 02:33:38;;;;;;;2.53;1.17;;;;;;;;;;5104075;28;20535;-68
2023/03/10 02:36:05;;;;;;;5.00;1.02;;;;;;;;;;5103691;28;20219;-68
2023/03/10 02:38:31;;;;;;;1.00;0.90;;;;;;;;;;5103892;28;20195;-68
2023/03/10 02:40:57;;;;;;;1.50;0.80;;;;;;;;;;5103742;28;20200;-68
2023/03/10 02:43:25;;;;;;;3.95;1.10;;;;;;;;;;5103931;28;20196;-69
2023/03/10 02:45:54;;;;;;;2.40;0.70;;;;;;;;;;5103647;28;20196;-69
2023/03/10 02:48:24;;;;;;;2.45;0.73;;;;;;;;;;5103559;28;20227;-69
2023/03/10 02:50:51;;;;;;;1.30;0.80;;;;;;;;;;5103971;28;20195;-68
2023/03/10 02:53:18;;;;;;;0.50;0.50;;;;;;;;;;5103550;28;20203;-68
2023/03/10 02:55:44;;;;;;;1.90;0.80;;;;;;;;;;5103959;28;20199;-68
2023/03/10 02:58:11;;;;;;;0.70;0.70;;;;;;;;;;5102605;28;20192;-69
2023/03/10 03:00:37;;;;;;;0.75;0.70;;;;;;;;;;5103366;28;20196;-68
2023/03/10 03:03:05;;;;;;;1.45;0.70;;;;;;;;;;5103641;28;20491;-69
2023/03/10 03:05:31;;;;;;;0.85;0.63;;;;;;;;;;5102949;28;20203;-69
2023/03/10 03:07:58;;;;;;;0.85;0.68;;;;;;;;;;5103294;28;20496;-69
2023/03/10 03:10:24;;;;;;;1.67;0.65;;;;;;;;;;5103270;28;20249;-68
2023/03/10 03:12:50;;;;;;;0.52;0.52;;;;;;;;;;5103317;28;20202;-69
2023/03/10 03:15:17;;;;;;;1.50;0.63;;;;;;;;;;5103242;28;20210;-68
2023/03/10 03:17:43;;;;;;;0.85;0.55;;;;;;;;;;5103555;28;20192;-69
2023/03/10 03:20:13;;;;;;;1.42;0.70;;;;;;;;;;5103380;28;20199;-69
2023/03/10 03:22:39;;;;;;;1.35;0.68;;;;;;;;;;5103280;28;20195;-69
2023/03/10 03:25:06;;;;;;;2.15;0.40;;;;;;;;;;5103170;28;20196;-68
2023/03/10 03:27:32;;;;;;;1.00;0.43;;;;;;;;;;5103161;28;20220;-68
2023/03/10 03:29:59;;;;;;;0.57;0.30;;;;;;;;;;5103241;28;20195;-68
2023/03/10 03:32:25;;;;;;;0.50;0.50;;;;;;;;;;5103143;28;20219;-69
2023/03/10 03:34:51;;;;;;;0.85;0.25;;;;;;;;;;5103284;28;20203;-69
2023/03/10 03:37:19;;;;;;;0.45;0.45;;;;;;;;;;5102716;28;20214;-69
2023/03/10 03:39:45;;;;;;;1.00;0.40;;;;;;;;;;5102906;28;20249;-69
2023/03/10 03:42:12;;;;;;;0.65;0.32;;;;;;;;;;5103088;28;20447;-69
2023/03/10 03:44:38;;;;;;;0.43;0.43;;;;;;;;;;5102871;28;20495;-69
2023/03/10 03:47:07;;;;;;;0.50;0.30;;;;;;;;;;5102377;28;20417;-69
2023/03/10 03:49:34;;;;;;;0.45;0.45;;;;;;;;;;5102602;28;20289;-69
2023/03/10 03:52:00;;;;;;;0.75;0.30;;;;;;;;;;5102745;28;20241;-69
2023/03/10 03:54:28;;;;;;;0.30;0.30;;;;;;;;;;5102652;28;20549;-69
2023/03/10 03:56:54;;;;;;;0.65;0.38;;;;;;;;;;5102509;28;20513;-69
2023/03/10 03:59:20;;;;;;;0.20;0.20;;;;;;;;;;5102807;28;20207;-69
2023/03/10 04:01:46;;;;;;;0.52;0.30;;;;;;;;;;5102855;28;20241;-69
2023/03/10 04:04:12;;;;;;;0.55;0.25;;;;;;;;;;5102641;28;20200;-69
2023/03/10 04:06:39;;;;;;;0.40;0.38;;;;;;;;;;5102213;28;20241;-69
2023/03/10 04:09:05;;;;;;;11.55;7.90;;;;;;;;;;5102294;28;20374;-69
2023/03/10 04:11:33;;;;;;;0.90;0.90;;;;;;;;;;5102388;28;20270;-69
2023/03/10 04:13:59;;;;;;;0.77;0.77;;;;;;;;;;5102992;28;20199;-69
2023/03/10 04:16:25;;;;;;;2.30;1.63;;;;;;;;;;5103153;28;20196;-69
2023/03/10 04:18:51;;;;;;;6.85;4.55;;;;;;;;;;5106523;28;20191;-69
2023/03/10 04:21:17;;;;;;;1.15;1.05;;;;;;;;;;5106608;28;20561;-69
2023/03/10 04:23:44;;;;;;;0.70;0.70;;;;;;;;;;5106456;28;20195;-69
2023/03/10 04:26:10;;;;;;;0.32;0.30;;;;;;;;;;5106563;28;20290;-69
2023/03/10 04:28:38;;;;;;;0.30;0.30;;;;;;;;;;5106196;28;20470;-69
2023/03/10 04:31:04;;;;;;;0.20;0.20;;;;;;;;;;5106579;28;20434;-68
2023/03/10 04:33:31;;;;;;;0.20;0.20;;;;;;;;;;5106278;28;20200;-68
2023/03/10 04:35:57;;;;;;;3.03;2.60;;;;;;;;;;5106334;28;20219;-68
2023/03/10 04:38:23;;;;;;;0.70;0.40;;;;;;;;;;5106029;28;20533;-68
2023/03/10 04:40:52;;;;;;;2.55;0.47;;;;;;;;;;5106540;28;20388;-69
2023/03/10 04:43:19;;;;;;;0.40;0.40;;;;;;;;;;5106350;28;20240;-69
2023/03/10 04:45:47;;;;;;;0.90;0.50;;;;;;;;;;5106194;28;20197;-69
2023/03/10 04:48:13;;;;;;;0.40;0.40;;;;;;;;;;5105853;28;20219;-68
2023/03/10 04:50:40;;;;;;;0.60;0.60;;;;;;;;;;5105908;28;20200;-69
2023/03/10 04:53:06;;;;;;;1.17;0.50;;;;;;;;;;5105973;28;20264;-69
2023/03/10 04:55:32;;;;;;;1.35;0.50;;;;;;;;;;5106058;28;20196;-69
2023/03/10 04:57:59;;;;;;;0.50;0.50;;;;;;;;;;5105816;28;20230;-69
2023/03/10 05:00:25;;;;;;;0.90;0.82;;;;;;;;;;5106003;28;20218;-69
2023/03/10 05:02:52;;;;;;;2.17;1.02;;;;;;;;;;5106083;28;20529;-69
2023/03/10 05:05:19;;;;;;;1.23;0.63;;;;;;;;;;5105744;28;20196;-69
2023/03/10 05:07:45;;;;;;;4.95;2.35;;;;;;;;;;5105665;28;20212;-69
2023/03/10 05:10:12;;;;;;;2.85;1.50;;;;;;;;;;5104584;28;20203;-69
2023/03/10 05:12:38;;;;;;;4.57;2.70;;;;;;;;;;5104678;28;20234;-69
2023/03/10 05:15:05;;;;;;;1.02;0.95;;;;;;;;;;5104598;28;20196;-69
2023/03/10 05:17:31;;;;;;;5.30;3.38;;;;;;;;;;5104466;28;20191;-69
2023/03/10 05:19:59;;;;;;;39.03;17.52;;;;;;;;;;5104525;28;20487;-69
2023/03/10 05:22:25;;;;;;;59.05;25.40;;;;;;;;;;5104417;28;20202;-69
2023/03/10 05:24:51;;;;;;;36.25;15.60;;;;;;;;;;5104077;28;20268;-69
2023/03/10 05:27:18;;;;;;;59.30;23.00;;;;;;;;;;5104005;28;20257;-69
2023/03/10 05:29:45;;;;;;;11.40;6.28;;;;;;;;;;5103953;28;20195;-69
2023/03/10 05:32:11;;;;;;;2.30;1.40;;;;;;;;;;5104146;28;20256;-69
2023/03/10 05:34:37;;;;;;;84.38;33.95;;;;;;;;;;5103821;28;20560;-69
2023/03/10 05:37:05;;;;;;;63.60;25.85;;;;;;;;;;5104262;28;20200;-69
2023/03/10 05:39:31;;;;;;;48.00;21.23;;;;;;;;;;5103920;28;20208;-69
2023/03/10 05:41:57;;;;;;;23.70;10.90;;;;;;;;;;5103847;28;20195;-69
2023/03/10 05:44:23;;;;;;;3.47;2.60;;;;;;;;;;5103891;28;20200;-69
2023/03/10 05:46:50;;;;;;;3.25;1.38;;;;;;;;;;5103467;28;20265;-69
2023/03/10 05:49:16;;;;;;;0.63;0.60;;;;;;;;;;5103440;28;20264;-69
2023/03/10 05:51:42;;;;;;;2.97;0.65;;;;;;;;;;5103922;28;20241;-69
2023/03/10 05:54:10;;;;;;;2.90;0.63;;;;;;;;;;5103658;28;20429;-69
2023/03/10 05:56:37;;;;;;;1.02;0.40;;;;;;;;;;5103579;28;20231;-69
2023/03/10 05:59:05;;;;;;;0.43;0.40;;;;;;;;;;5103472;28;20192;-69
2023/03/10 06:01:32;;;;;;;0.40;0.40;;;;;;;;;;5103470;28;20263;-69
2023/03/10 06:03:58;;;;;;;1.50;0.57;;;;;;;;;;5103395;28;20266;-69
2023/03/10 06:06:24;;;;;;;5.18;2.75;;;;;;;;;;5103602;28;20496;-69
2023/03/10 06:08:51;;;;;;;2.50;0.52;;;;;;;;;;5066716;28;1030395;-69
2023/03/10 06:11:18;;;;;;;0.77;0.45;;;;;;;;;;5104135;28;20203;-69
2023/03/10 06:13:44;;;;;;;1.05;0.50;;;;;;;;;;5104037;28;20195;-69
2023/03/10 06:16:11;;;;;;;1.05;0.60;;;;;;;;;;5103907;28;20195;-69
2023/03/10 06:18:37;;;;;;;1.15;0.60;;;;;;;;;;5104285;28;20250;-69
2023/03/10 06:21:05;;;;;;;2.95;0.95;;;;;;;;;;5103983;28;20218;-69
2023/03/10 06:23:31;;;;;;;0.60;0.60;;;;;;;;;;5103981;28;20200;-69
2023/03/10 06:25:58;;;;;;;1.27;0.57;;;;;;;;;;5103884;28;20365;-69
2023/03/10 06:28:26;;;;;;;1.17;0.75;;;;;;;;;;5103582;28;20219;-69
2023/03/10 06:30:55;;;;;;;1.02;0.77;;;;;;;;;;5103874;28;20259;-69
2023/03/10 06:33:21;;;;;;;1.08;0.70;;;;;;;;;;5103735;28;20246;-69
2023/03/10 06:35:48;;;;;;;1.15;0.77;;;;;;;;;;5103546;28;20218;-69
2023/03/10 06:38:14;;;;;;;5.00;1.10;;;;;;;;;;5103416;28;20195;-69
2023/03/10 06:40:40;;;;;;;3.08;0.90;;;;;;;;;;5102794;28;20195;-69
2023/03/10 06:43:06;;;;;;;1.67;0.90;;;;;;;;;;5103229;28;20200;-61
2023/03/10 06:45:34;;;;;;;2.03;1.23;;;;;;;;;;5090383;28;20207;-60
2023/03/10 06:48:00;;;;;;;3.75;0.75;;;;;;;;;;5084651;28;20274;-60
2023/03/10 06:50:26;;;;;;;1.20;0.70;;;;;;;;;;5084832;28;20591;-60
2023/03/10 06:52:53;;;;;;;0.93;0.93;;;;;;;;;;5088139;28;20209;-60
2023/03/10 06:55:19;;;;;;;1.42;1.00;;;;;;;;;;5079196;28;20443;-60
2023/03/10 06:57:45;;;;;;;2.83;0.77;;;;;;;;;;5083294;28;20203;-61
2023/03/10 07:00:14;;;;;;;2.85;0.88;;;;;;;;;;5091358;28;20219;-60
2023/03/10 07:02:42;;;;;;;2.97;0.80;;;;;;;;;;5095109;28;20523;-61
2023/03/10 07:05:10;;;;;;;1.45;0.70;;;;;;;;;;5095487;28;20416;-61
2023/03/10 07:07:37;;;;;;;0.82;0.70;;;;;;;;;;5095574;28;20218;-61
2023/03/10 07:10:03;;;;;;;1.85;0.63;;;;;;;;;;5096320;28;20241;-61
2023/03/10 07:12:29;;;;;;;1.83;0.60;;;;;;;;;;5094684;28;20215;-61
2023/03/10 07:14:55;;;;;;;0.60;0.60;;;;;;;;;;5095432;28;20219;-61
2023/03/10 07:17:22;;;;;;;0.65;0.65;;;;;;;;;;5095760;28;20211;-61
2023/03/10 07:19:49;;;;;;;0.30;0.30;;;;;;;;;;5095652;28;20215;-61
2023/03/10 07:22:15;;;;;;;1.30;0.50;;;;;;;;;;5090105;28;20208;-61
2023/03/10 07:24:42;;;;;;;0.73;0.47;;;;;;;;;;5084583;28;20208;-61
2023/03/10 07:27:08;;;;;;;0.65;0.45;;;;;;;;;;5080698;28;20295;-61
2023/03/10 07:29:35;;;;;;;0.82;0.32;;;;;;;;;;5085001;28;20269;-61
2023/03/10 07:32:01;;;;;;;0.43;0.40;;;;;;;;;;5091469;28;20207;-60
2023/03/10 07:34:27;;;;;;;0.50;0.47;;;;;;;;;;5093731;28;20212;-60
2023/03/10 07:36:55;;;;;;;0.65;0.52;;;;;;;;;;5093933;28;20375;-59
2023/03/10 07:39:21;;;;;;;1.35;0.50;;;;;;;;;;5094802;28;20522;-59
2023/03/10 07:41:47;;;;;;;0.68;0.40;;;;;;;;;;5094415;28;20420;-59
2023/03/10 07:44:14;;;;;;;1.85;0.50;;;;;;;;;;5095107;28;20216;-59
2023/03/10 07:46:40;;;;;;;0.57;0.57;;;;;;;;;;5093428;28;20220;-59
2023/03/10 07:49:06;;;;;;;4.68;0.60;;;;;;;;;;5093964;28;20285;-58
2023/03/10 07:51:32;;;;;;;0.43;0.43;;;;;;;;;;5095017;28;20208;-59
2023/03/10 07:54:00;;;;;;;1.55;0.80;;;;;;;;;;5095310;28;20212;-59
2023/03/10 07:56:26;;;;;;;0.90;0.60;;;;;;;;;;5094303;28;20511;-59
2023/03/10 07:58:52;;;;;;;1.10;0.80;;;;;;;;;;5094678;28;20380;-59
2023/03/10 08:01:20;;;;;;;1.38;0.50;;;;;;;;;;5094349;28;20527;-59
2023/03/10 08:03:46;;;;;;;1.25;0.40;;;;;;;;;;5096039;28;20211;-60
2023/03/10 08:06:16;;;;;;;2.15;0.50;;;;;;;;;;5089153;28;20399;-59
2023/03/10 08:08:42;;;;;;;1.38;0.80;;;;;;;;;;5095773;28;20232;-60
2023/03/10 08:11:10;;;;;;;0.77;0.70;;;;;;;;;;5096746;28;20215;-60
2023/03/10 08:13:36;;;;;;;2.97;0.90;;;;;;;;;;5094135;28;20515;-59
2023/03/10 08:16:02;;;;;;;1.20;1.10;;;;;;;;;;5092920;28;20523;-60
2023/03/10 08:18:29;;;;;;;1.98;0.82;;;;;;;;;;5093153;28;20200;-60
2023/03/10 08:20:56;;;;;;;0.65;0.63;;;;;;;;;;5094945;28;20262;-60
2023/03/10 08:23:22;;;;;;;2.30;0.73;;;;;;;;;;5095612;28;20211;-59
2023/03/10 08:25:48;;;;;;;1.05;0.88;;;;;;;;;;5094808;28;20207;-59
2023/03/10 08:28:16;;;;;;;2.47;0.93;;;;;;;;;;5095664;28;20231;-59
2023/03/10 08:30:42;;;;;;;3.03;0.73;;;;;;;;;;5094853;28;20212;-61
2023/03/10 08:33:09;;;;;;;1.63;0.43;;;;;;;;;;5095936;28;20245;-61
2023/03/10 08:35:35;;;;;;;0.47;0.40;;;;;;;;;;5094621;28;20219;-59
2023/03/10 08:38:01;;;;;;;0.60;0.38;;;;;;;;;;5094493;28;20208;-58
2023/03/10 08:40:28;;;;;;;0.50;0.50;;;;;;;;;;5095544;28;20294;-59
2023/03/10 08:42:54;;;;;;;0.38;0.30;;;;;;;;;;5095168;28;20257;-63
2023/03/10 08:45:22;;;;;;;1.70;0.68;;;;;;;;;;5094434;28;20733;-61
2023/03/10 08:47:48;;;;;;;2.78;1.00;;;;;;;;;;5095374;28;20245;-59
2023/03/10 08:50:14;;;;;;;1.45;0.47;;;;;;;;;;5095190;28;20273;-59
2023/03/10 08:52:40;;;;;;;0.73;0.43;;;;;;;;;;5096007;28;20515;-59
2023/03/10 08:55:07;;;;;;;0.90;0.55;;;;;;;;;;5095001;28;20220;-58
2023/03/10 08:57:33;;;;;;;3.00;0.90;;;;;;;;;;5094772;28;20208;-59
2023/03/10 09:00:00;;;;;;;0.47;0.47;;;;;;;;;;5094726;28;20415;-59
2023/03/10 09:02:28;;;;;;;1.20;0.50;;;;;;;;;;5094932;28;20213;-62
2023/03/10 09:04:54;;;;;;;2.25;0.70;;;;;;;;;;5098131;28;20253;-60
2023/03/10 09:07:20;;;;;;;1.40;0.60;;;;;;;;;;5097954;28;20219;-58
2023/03/10 09:09:47;;;;;;;0.63;0.40;;;;;;;;;;5098238;28;20559;-59
2023/03/10 09:12:13;;;;;;;0.80;0.68;;;;;;;;;;5098823;28;20230;-60
2023/03/10 09:14:39;;;;;;;0.70;0.68;;;;;;;;;;5098633;28;20447;-61
2023/03/10 09:17:06;;;;;;;1.45;0.93;;;;;;;;;;5097499;28;20523;-58
2023/03/10 09:19:33;;;;;;;1.55;0.70;;;;;;;;;;5097905;28;20294;-59
2023/03/10 09:22:00;;;;;;;5.03;1.73;;;;;;;;;;5097470;28;20208;-59
2023/03/10 09:24:26;;;;;;;1.60;1.25;;;;;;;;;;5099038;28;20204;-59
2023/03/10 09:26:54;;;;;;;1.23;0.63;;;;;;;;;;5097398;28;20215;-59
2023/03/10 09:29:21;;;;;;;1.15;0.90;;;;;;;;;;5096978;28;20292;-59
2023/03/10 09:31:47;;;;;;;1.40;0.60;;;;;;;;;;5098217;28;20277;-59
2023/03/10 09:34:13;;;;;;;3.60;0.93;;;;;;;;;;5098208;28;20208;-59
2023/03/10 09:36:41;;;;;;;0.85;0.70;;;;;;;;;;5097389;28;20257;-59
2023/03/10 09:39:07;;;;;;;0.65;0.60;;;;;;;;;;5097544;28;20203;-60
2023/03/10 09:41:46;;;;;;;1.48;0.68;;;;;;;;;;5097863;28;20277;-59
2023/03/10 09:44:22;;;;;;;1.75;0.70;;;;;;;;;;5096998;28;20212;-59
2023/03/10 09:46:52;;;;;;;0.47;0.47;;;;;;;;;;5097536;28;20246;-59
2023/03/10 09:49:22;;;;;;;2.38;0.60;;;;;;;;;;5097026;28;20277;-59
2023/03/10 09:51:50;;;;;;;1.85;0.50;;;;;;;;;;5097872;28;20266;-59
2023/03/10 09:54:27;;;;;;;2.25;0.60;;;;;;;;;;5097490;28;20212;-59
2023/03/10 09:56:54;;;;;;;1.65;0.70;;;;;;;;;;5096977;28;20527;-59
2023/03/10 09:59:25;;;;;;;2.30;0.80;;;;;;;;;;5096146;28;20434;-59
2023/03/10 10:01:52;;;;;;;3.92;0.93;;;;;;;;;;5096694;28;20445;-59
2023/03/10 10:04:21;;;;;;;3.13;0.63;;;;;;;;;;5096697;28;20253;-59
2023/03/10 10:06:48;;;;;;;0.98;0.50;;;;;;;;;;5096955;28;20216;-59
2023/03/10 10:09:20;;;;;;;1.10;0.70;;;;;;;;;;5097657;28;20227;-59
2023/03/10 10:11:46;;;;;;;1.55;0.68;;;;;;;;;;5097431;28;20204;-59
2023/03/10 10:14:14;;;;;;;1.77;0.63;;;;;;;;;;5095563;28;20234;-59
2023/03/10 10:16:43;;;;;;;1.17;0.85;;;;;;;;;;5093526;28;20214;-60
2023/03/10 10:19:14;;;;;;;1.63;0.82;;;;;;;;;;5091213;28;20207;-60
2023/03/10 10:21:42;;;;;;;1.27;0.65;;;;;;;;;;5097632;28;20516;-60
2023/03/10 10:24:09;;;;;;;2.55;0.57;;;;;;;;;;5097579;28;20211;-60
2023/03/10 10:26:36;;;;;;;2.60;0.70;;;;;;;;;;5096980;28;20459;-59
2023/03/10 10:29:12;;;;;;;1.85;0.60;;;;;;;;;;5097093;28;20426;-60
2023/03/10 10:31:38;;;;;;;0.75;0.50;;;;;;;;;;5096008;28;20527;-59
2023/03/10 10:34:06;;;;;;;0.85;0.57;;;;;;;;;;5096413;28;20218;-61
2023/03/10 10:36:33;;;;;;;0.40;0.40;;;;;;;;;;5097029;28;20293;-58
2023/03/10 10:39:00;;;;;;;2.05;0.93;;;;;;;;;;5096436;28;20208;-59
2023/03/10 10:41:28;;;;;;;4.30;0.63;;;;;;;;;;5096457;28;20212;-59
2023/03/10 10:43:57;;;;;;;1.05;0.70;;;;;;;;;;5091906;28;20222;-58
2023/03/10 10:46:25;;;;;;;0.70;0.60;;;;;;;;;;5094011;28;20537;-59
2023/03/10 10:49:00;;;;;;;2.38;0.80;;;;;;;;;;5088750;28;20570;-63
2023/03/10 10:51:27;;;;;;;1.65;0.70;;;;;;;;;;5097062;28;20211;-58
2023/03/10 10:53:54;;;;;;;2.05;0.40;;;;;;;;;;5097356;28;20208;-59
2023/03/10 10:56:22;;;;;;;0.70;0.60;;;;;;;;;;5096607;28;20238;-59
2023/03/10 10:59:02;;;;;;;0.77;0.65;;;;;;;;;;5097277;28;20245;-60
2023/03/10 11:01:45;;;;;;;1.55;0.43;;;;;;;;;;5096604;28;20212;-60
2023/03/10 11:04:12;;;;;;;1.45;0.63;;;;;;;;;;5097108;28;20272;-62
2023/03/10 11:06:38;;;;;;;1.58;0.52;;;;;;;;;;5096170;28;20215;-63
2023/03/10 11:09:07;;;;;;;0.43;0.43;;;;;;;;;;5095792;28;20231;-59
2023/03/10 11:11:36;;;;;;;0.40;0.40;;;;;;;;;;5095709;28;20212;-59
2023/03/10 11:14:16;;;;;;;1.50;0.55;;;;;;;;;;5095751;28;20204;-59
2023/03/10 11:16:47;;;;;;;1.65;0.60;;;;;;;;;;5096072;28;20256;-60
2023/03/10 11:19:16;;;;;;;1.95;0.57;;;;;;;;;;5096048;28;20245;-59
2023/03/10 11:21:45;;;;;;;2.15;0.60;;;;;;;;;;5095612;28;20258;-58
2023/03/10 11:24:14;;;;;;;3.83;0.70;;;;;;;;;;5096679;28;20212;-59
2023/03/10 11:26:47;;;;;;;0.82;0.45;;;;;;;;;;5095938;28;20248;-60
2023/03/10 11:29:19;;;;;;;0.50;0.50;;;;;;;;;;5093956;28;20257;-61
2023/03/10 11:31:49;;;;;;;0.93;0.52;;;;;;;;;;5095044;28;20211;-61
2023/03/10 11:34:18;;;;;;;2.38;0.60;;;;;;;;;;5095742;28;20448;-61
2023/03/10 11:36:47;;;;;;;2.63;0.50;;;;;;;;;;5094805;28;20231;-61
2023/03/10 11:39:17;;;;;;;3.10;0.68;;;;;;;;;;5095484;28;20241;-61
2023/03/10 11:41:45;;;;;;;0.52;0.52;;;;;;;;;;5095638;28;20208;-61
2023/03/10 11:44:15;;;;;;;2.03;0.60;;;;;;;;;;5095444;28;20309;-60
2023/03/10 11:46:55;;;;;;;1.02;0.40;;;;;;;;;;5095783;28;20241;-61
2023/03/10 11:49:26;;;;;;;0.50;0.50;;;;;;;;;;5095360;28;20249;-61
2023/03/10 11:51:54;;;;;;;1.25;0.50;;;;;;;;;;5095773;28;20242;-61
2023/03/10 11:54:22;;;;;;;1.92;1.23;;;;;;;;;;5095383;28;20219;-61
2023/03/10 11:56:48;;;;;;;2.15;1.15;;;;;;;;;;5094011;28;20452;-62
2023/03/10 11:59:16;;;;;;;2.80;1.40;;;;;;;;;;5095041;28;20207;-62
2023/03/10 12:01:45;;;;;;;1.85;0.50;;;;;;;;;;5094421;28;20212;-60
2023/03/10 12:04:13;;;;;;;1.63;1.25;;;;;;;;;;5094611;28;20560;-61
2023/03/10 12:06:43;;;;;;;0.60;0.50;;;;;;;;;;5093815;28;20215;-61
2023/03/10 12:09:15;;;;;;;1.00;0.40;;;;;;;;;;5094965;28;20231;-60
2023/03/10 12:11:41;;;;;;;0.40;0.40;;;;;;;;;;5094473;28;20212;-61
2023/03/10 12:14:12;;;;;;;1.00;0.43;;;;;;;;;;5094852;28;20203;-60
2023/03/10 12:16:40;;;;;;;0.90;0.52;;;;;;;;;;5094165;28;20211;-60
2023/03/10 12:19:08;;;;;;;0.63;0.50;;;;;;;;;;5095471;28;20219;-61
2023/03/10 12:21:34;;;;;;;1.10;1.00;;;;;;;;;;5095384;28;20568;-60
2023/03/10 12:24:02;;;;;;;1.40;0.50;;;;;;;;;;5095133;28;20478;-61
2023/03/10 12:26:48;;;;;;;1.65;0.50;;;;;;;;;;5094162;28;20241;-61
2023/03/10 12:29:32;;;;;;;0.50;0.40;;;;;;;;;;5093834;28;20302;-60
2023/03/10 12:31:58;;;;;;;0.43;0.43;;;;;;;;;;5094204;28;20545;-61
2023/03/10 12:34:27;;;;;;;0.68;0.68;;;;;;;;;;5094501;28;20542;-61
2023/03/10 12:36:54;;;;;;;0.70;0.70;;;;;;;;;;5093741;28;20287;-61
2023/03/10 12:39:25;;;;;;;0.75;0.47;;;;;;;;;;5097691;28;20379;-60
2023/03/10 12:41:52;;;;;;;0.40;0.40;;;;;;;;;;5098204;28;20371;-61
2023/03/10 12:44:30;;;;;;;0.60;0.38;;;;;;;;;;5097835;28;20557;-60
2023/03/10 12:46:59;;;;;;;0.17;0.17;;;;;;;;;;5098254;28;20212;-60
2023/03/10 12:49:32;;;;;;;0.38;0.32;;;;;;;;;;5098439;28;20265;-61
2023/03/10 12:52:01;;;;;;;0.65;0.30;;;;;;;;;;5098984;28;20568;-60
2023/03/10 12:54:33;;;;;;;0.30;0.30;;;;;;;;;;5098729;28;20257;-60
2023/03/10 12:57:02;;;;;;;0.30;0.30;;;;;;;;;;5093416;28;20215;-60
2023/03/10 12:59:32;;;;;;;0.30;0.30;;;;;;;;;;5098169;28;20442;-60
2023/03/10 13:02:00;;;;;;;0.40;0.40;;;;;;;;;;5091835;28;20266;-61
2023/03/10 13:04:27;;;;;;;1.17;0.30;;;;;;;;;;5094102;28;20231;-61
2023/03/10 13:07:02;;;;;;;0.63;0.20;;;;;;;;;;5097548;28;20419;-61
2023/03/10 13:09:30;;;;;;;0.30;0.30;;;;;;;;;;5098055;28;20261;-62
2023/03/10 13:11:58;;;;;;;2.05;0.43;;;;;;;;;;5097889;28;20485;-62
2023/03/10 13:14:33;;;;;;;0.40;0.28;;;;;;;;;;5098538;28;20629;-62
2023/03/10 13:17:00;;;;;;;0.75;0.30;;;;;;;;;;5097650;28;20249;-62
2023/03/10 13:19:28;;;;;;;0.20;0.20;;;;;;;;;;5097383;28;20211;-62
2023/03/10 13:21:55;;;;;;;0.20;0.20;;;;;;;;;;5098389;28;20220;-62
2023/03/10 13:24:23;;;;;;;0.13;0.13;;;;;;;;;;5097124;28;20470;-62
2023/03/10 13:27:01;;;;;;;0.25;0.25;;;;;;;;;;5087074;28;20205;-61
2023/03/10 13:29:27;;;;;;;0.20;0.20;;;;;;;;;;5087206;28;20254;-61
2023/03/10 13:31:54;;;;;;;0.20;0.20;;;;;;;;;;5086466;28;20209;-62
2023/03/10 13:34:21;;;;;;;0.30;0.30;;;;;;;;;;5089059;28;20212;-61
2023/03/10 13:36:48;;;;;;;0.38;0.20;;;;;;;;;;5100736;28;20207;-61
2023/03/10 13:39:16;;;;;;;0.30;0.30;;;;;;;;;;5112586;28;20245;-61
2023/03/10 13:41:43;;;;;;;0.30;0.30;;;;;;;;;;5096972;28;20439;-60
2023/03/10 13:44:15;;;;;;;0.32;0.22;;;;;;;;;;5096425;28;20212;-60
2023/03/10 13:46:46;;;;;;;0.25;0.25;;;;;;;;;;5096346;28;20215;-60
2023/03/10 13:49:16;;;;;;;0.32;0.20;;;;;;;;;;5097043;28;20555;-61
2023/03/10 13:51:51;;;;;;;0.20;0.20;;;;;;;;;;5096280;28;20219;-60
2023/03/10 13:54:20;;;;;;;0.20;0.20;;;;;;;;;;5096230;28;20214;-61
2023/03/10 13:56:47;;;;;;;0.20;0.20;;;;;;;;;;5096358;28;20211;-60
2023/03/10 13:59:14;;;;;;;0.30;0.28;;;;;;;;;;5096780;28;20234;-60
2023/03/10 14:01:43;;;;;;;4.32;3.60;;;;;;;;;;5096575;28;20199;-60
2023/03/10 14:04:14;;;;;;;0.85;0.85;;;;;;;;;;5097547;28;20216;-60
2023/03/10 14:06:40;;;;;;;0.63;0.20;;;;;;;;;;5096628;28;20212;-60
2023/03/10 14:09:19;;;;;;;0.30;0.30;;;;;;;;;;5096719;28;20265;-60
2023/03/10 14:11:47;;;;;;;0.20;0.20;;;;;;;;;;5097426;28;20582;-60
2023/03/10 14:14:14;;;;;;;0.20;0.20;;;;;;;;;;5097393;28;20220;-60
2023/03/10 14:16:43;;;;;;;0.15;0.15;;;;;;;;;;5097080;28;20275;-60
2023/03/10 14:19:09;;;;;;;0.35;0.20;;;;;;;;;;5096804;28;20512;-60
2023/03/10 14:21:38;;;;;;;0.20;0.20;;;;;;;;;;5097979;28;20207;-61
2023/03/10 14:24:05;;;;;;;0.30;0.30;;;;;;;;;;5097088;28;20227;-61
2023/03/10 14:26:31;;;;;;;0.20;0.20;;;;;;;;;;5096591;28;20212;-60
2023/03/10 14:28:59;;;;;;;0.98;0.30;;;;;;;;;;5085099;28;20219;-60
2023/03/10 14:31:25;;;;;;;0.30;0.30;;;;;;;;;;5079187;28;20220;-60
2023/03/10 14:33:52;;;;;;;0.25;0.20;;;;;;;;;;5085559;28;20203;-60
2023/03/10 14:36:18;;;;;;;1.40;1.40;;;;;;;;;;5094741;28;20249;-60
2023/03/10 14:38:44;;;;;;;0.22;0.22;;;;;;;;;;5096042;28;20239;-60
2023/03/10 14:41:11;;;;;;;1.75;0.32;;;;;;;;;;5097034;28;20746;-60
2023/03/10 14:43:39;;;;;;;1.08;0.40;;;;;;;;;;5096835;28;20212;-60
2023/03/10 14:46:07;;;;;;;0.30;0.30;;;;;;;;;;5096272;28;20253;-61